Changde, China
Current Conditions -  °F | °C
As of 12:00 AM on Friday 19 Dec 2014 (Local Time) from ZGHA Reporting Station
Clear Clear  
Wind Chill: 39°   Ceiling: Unl
Heat Index: 45°   Visibility: 6mi
Dew Point: 28°   Wind: 11mph
Humidity: 53%   Direction: 90°E
Pressure: 30.36"   Gusts: NA
Location:  29.03°N, 111.68°E
Report Text: ZGHA 181600Z 09005MPS CAVOK 07/M02 Q1028 NOSIG
Loading
Personal Weather Stations






























Interactive Weather Map New forecast layout! Learn more

10-Day Weather Forecast

Advertisements
Track Severe Weather on mobile